createdAt,value
2024-01-28T00:03:00.608Z,99787.63
2024-01-28T00:08:05.755Z,99764.66
2024-01-28T00:13:09.504Z,99721.47
2024-01-28T00:18:14.673Z,99754.41
2024-01-28T00:23:18.722Z,99505.75
2024-01-28T00:28:22.398Z,99761.50
2024-01-28T00:33:27.734Z,99724.72
2024-01-28T00:38:32.866Z,99741.47
2024-01-28T00:43:36.859Z,99573.16
2024-01-28T00:48:42.317Z,99741.66
2024-01-28T00:53:46.357Z,99745.72
2024-01-28T00:58:50.137Z,99718.97
2024-01-28T01:03:55.341Z,99433.78
2024-01-28T01:08:59.545Z,99626.09
2024-01-28T01:14:05.188Z,99627.63
2024-01-28T01:19:10.308Z,99714.94
2024-01-28T01:24:14.156Z,99711.13
2024-01-28T01:29:17.861Z,99716.72
2024-01-28T01:34:23.068Z,99485.38
2024-01-28T01:39:27.078Z,99714.50
2024-01-28T01:44:31.061Z,99681.13
2024-01-28T01:49:36.866Z,99569.09
2024-01-28T01:54:40.944Z,99520.94
2024-01-28T01:59:45.776Z,99696.59
2024-01-28T02:04:52.081Z,99477.97
2024-01-28T02:09:55.844Z,99694.31
2024-01-28T02:15:06.149Z,99409.25
2024-01-28T02:20:13.064Z,99687.34
2024-01-28T02:25:18.318Z,99681.50
2024-01-28T02:30:22.116Z,99656.88
2024-01-28T02:35:26.919Z,99502.47
2024-01-28T02:40:32.998Z,99400.50
2024-01-28T02:45:37.067Z,99399.56
2024-01-28T02:50:40.992Z,99684.34
2024-01-28T02:55:46.256Z,99603.50
2024-01-28T03:00:50.220Z,99661.00
2024-01-28T03:05:54.078Z,99657.53
2024-01-28T03:11:00.063Z,99659.31
2024-01-28T03:16:04.905Z,99608.66
2024-01-28T03:21:08.668Z,99525.94
2024-01-28T03:26:14.228Z,99401.84
2024-01-28T03:31:19.495Z,99658.69
2024-01-28T03:36:23.507Z,99573.03
2024-01-28T03:41:28.900Z,99628.25
2024-01-28T03:46:32.609Z,99644.66
2024-01-28T03:52:26.080Z,99652.53
2024-01-28T03:57:31.564Z,99646.38
2024-01-28T04:02:35.291Z,99628.84
2024-01-28T04:07:39.389Z,99650.13
2024-01-28T04:12:44.690Z,99615.06
2024-01-28T04:17:48.702Z,99635.34
2024-01-28T04:22:52.753Z,99618.31
2024-01-28T04:27:58.070Z,99462.50
2024-01-28T04:33:02.058Z,99414.84
2024-01-28T04:38:06.211Z,99581.94
2024-01-28T04:43:11.971Z,99563.81
2024-01-28T04:48:17.154Z,99589.88
2024-01-28T04:53:21.013Z,99630.59
2024-01-28T04:58:26.169Z,99643.41
2024-01-28T05:03:30.034Z,99652.28
2024-01-28T05:08:33.954Z,99628.38
2024-01-28T05:13:39.023Z,99676.75
2024-01-28T05:18:42.876Z,99651.34
2024-01-28T05:23:46.996Z,99644.38
2024-01-28T05:28:52.266Z,99614.50
2024-01-28T05:33:56.277Z,99643.81
2024-01-28T05:39:00.328Z,99575.38
2024-01-28T05:44:06.047Z,99633.41
2024-01-28T05:49:12.660Z,99182.84
2024-01-28T05:54:17.018Z,99614.41
2024-01-28T05:59:22.290Z,99634.38
2024-01-28T06:04:26.170Z,99526.97
2024-01-28T06:09:29.938Z,99587.75
2024-01-28T06:14:35.271Z,99641.56
2024-01-28T06:19:39.019Z,99619.44
2024-01-28T06:24:43.963Z,99612.50
2024-01-28T06:29:49.310Z,99461.59
2024-01-28T06:34:53.930Z,99639.84
2024-01-28T06:39:58.013Z,99309.25
2024-01-28T06:45:09.231Z,99462.03
2024-01-28T06:50:13.276Z,99525.81
2024-01-28T06:55:17.339Z,99656.56
2024-01-28T07:00:23.176Z,99524.53
2024-01-28T07:05:27.527Z,99605.91
2024-01-28T07:10:31.482Z,99322.63
2024-01-28T07:15:37.225Z,99571.41
2024-01-28T07:20:41.358Z,99576.69
2024-01-28T07:25:45.188Z,99640.31
2024-01-28T07:30:50.515Z,99568.50
2024-01-28T07:35:54.850Z,99554.00
2024-01-28T07:41:03.700Z,99272.09
2024-01-28T07:46:10.684Z,99636.34
2024-01-28T07:51:14.700Z,99517.50
2024-01-28T07:56:19.038Z,99644.91
2024-01-28T08:01:24.526Z,99560.06
2024-01-28T08:06:29.159Z,99602.44
2024-01-28T08:11:33.125Z,99616.22
2024-01-28T08:16:38.577Z,99570.03
2024-01-28T08:21:44.458Z,99594.69
2024-01-28T08:26:48.824Z,99619.94
2024-01-28T08:31:54.282Z,99371.66
2024-01-28T08:36:58.234Z,99630.97
2024-01-28T08:42:02.168Z,99556.28
2024-01-28T08:47:08.119Z,99459.16
2024-01-28T08:52:12.881Z,99285.03
2024-01-28T08:57:16.866Z,99610.41
2024-01-28T09:02:23.395Z,99584.19
2024-01-28T09:07:53.078Z,99489.53
2024-01-28T09:12:57.413Z,99531.47
2024-01-28T09:18:03.746Z,99490.94
2024-01-28T09:23:07.623Z,99408.09
2024-01-28T09:28:11.735Z,99510.34
2024-01-28T09:33:17.222Z,99578.94
2024-01-28T09:38:21.527Z,99641.19
2024-01-28T09:43:30.806Z,99656.94
2024-01-28T09:48:37.364Z,99645.41
2024-01-28T09:53:44.061Z,99634.50
2024-01-28T09:58:48.619Z,99536.06
2024-01-28T10:03:54.428Z,99577.16
2024-01-28T10:08:58.625Z,99394.44
2024-01-28T10:14:02.680Z,99617.66
2024-01-28T10:19:08.404Z,99613.25
2024-01-28T10:24:13.533Z,99552.22
2024-01-28T10:29:18.977Z,99606.56
2024-01-28T10:34:24.638Z,99545.28
2024-01-28T10:39:33.990Z,99581.22
2024-01-28T10:44:46.185Z,99586.34
2024-01-28T10:55:31.556Z,99568.06
2024-01-28T11:00:37.064Z,99527.63
2024-01-28T11:05:42.668Z,99603.75
2024-01-28T11:10:46.435Z,99487.56
2024-01-28T11:15:50.418Z,99456.91
2024-01-28T11:20:55.952Z,99223.28
2024-01-28T11:26:01.556Z,99348.94
2024-01-28T11:31:05.931Z,99551.34
2024-01-28T11:36:12.064Z,99539.56
2024-01-28T11:41:19.547Z,99532.53
2024-01-28T11:46:24.186Z,99473.50
2024-01-28T11:51:32.851Z,99501.84
2024-01-28T11:56:40.047Z,99532.09
2024-01-28T12:01:45.670Z,99515.47
2024-01-28T12:06:51.245Z,99468.72
2024-01-28T12:11:55.411Z,99510.19
2024-01-28T12:17:00.330Z,99500.50
2024-01-28T12:22:05.934Z,99499.53
2024-01-28T12:27:10.451Z,99489.13
2024-01-28T12:32:14.631Z,99391.72
2024-01-28T12:37:23.103Z,99083.22
2024-01-28T12:42:28.636Z,99461.41
2024-01-28T12:47:32.598Z,99420.72
2024-01-28T12:52:38.473Z,99457.59
2024-01-28T12:57:43.830Z,99443.56
2024-01-28T13:02:48.014Z,99439.94
2024-01-28T13:07:53.850Z,99297.56
2024-01-28T13:12:58.084Z,99397.03
2024-01-28T13:18:02.296Z,99387.69
2024-01-28T13:23:07.680Z,99421.63
2024-01-28T13:28:12.058Z,99413.91
2024-01-28T13:33:16.226Z,99389.06
2024-01-28T13:38:22.019Z,99345.56
2024-01-28T13:43:26.067Z,99370.53
2024-01-28T13:48:31.035Z,99357.63
2024-01-28T13:53:37.962Z,99156.88
2024-01-28T13:58:42.187Z,99339.94
2024-01-28T14:03:46.132Z,99268.47
2024-01-28T14:08:51.819Z,99386.81
2024-01-28T14:13:55.908Z,99131.16
2024-01-28T14:19:02.334Z,99252.56
2024-01-28T14:24:08.554Z,99357.22
2024-01-28T14:29:12.598Z,99362.53
2024-01-28T14:34:16.765Z,99389.03
2024-01-28T14:39:22.657Z,99379.22
2024-01-28T14:44:27.257Z,99333.97
2024-01-28T14:49:31.943Z,99389.28
2024-01-28T14:54:37.644Z,99381.50
2024-01-28T14:59:41.857Z,99378.16
2024-01-28T15:04:45.750Z,99316.84
2024-01-28T15:09:52.520Z,99229.72
2024-01-28T15:14:56.493Z,99345.31
2024-01-28T15:20:00.724Z,99376.88
2024-01-28T15:25:07.539Z,99387.22
2024-01-28T15:30:11.919Z,99349.53
2024-01-28T15:35:16.201Z,99393.69
2024-01-28T15:40:21.647Z,99372.88
2024-01-28T15:45:25.438Z,99356.19
2024-01-28T15:50:29.286Z,99332.09
2024-01-28T15:55:34.802Z,99379.94
2024-01-28T16:00:38.807Z,99364.06
2024-01-28T16:05:42.825Z,99290.94
2024-01-28T16:10:48.152Z,99363.09
2024-01-28T16:15:52.362Z,99369.53
2024-01-28T16:20:56.325Z,99310.00
2024-01-28T16:26:01.867Z,99321.91
2024-01-28T16:31:06.054Z,99324.94
2024-01-28T16:36:10.138Z,99122.59
2024-01-28T16:41:15.357Z,99307.28
2024-01-28T16:46:21.691Z,99339.63
2024-01-28T16:51:25.646Z,99282.84
2024-01-28T16:56:32.637Z,99216.84
2024-01-28T17:01:37.330Z,99312.25
2024-01-28T17:06:41.268Z,99374.75
2024-01-28T17:11:46.607Z,99309.81
2024-01-28T17:16:50.670Z,99256.38
2024-01-28T17:21:56.188Z,99374.03
2024-01-28T17:27:01.958Z,99322.78
2024-01-28T17:32:06.304Z,99274.59
2024-01-28T17:37:15.489Z,99377.22
2024-01-28T17:42:20.640Z,99329.78
2024-01-28T17:47:24.578Z,99388.25
2024-01-28T17:52:28.562Z,99356.44
2024-01-28T17:57:35.805Z,99355.94
2024-01-28T18:02:39.867Z,99181.53
2024-01-28T18:07:44.776Z,99394.41
2024-01-28T18:12:50.129Z,99405.31
2024-01-28T18:17:54.010Z,99399.09
2024-01-28T18:22:58.200Z,99251.00
2024-01-28T18:28:03.641Z,99378.00
2024-01-28T18:33:07.894Z,99343.06
2024-01-28T18:38:11.835Z,99384.81
2024-01-28T18:43:17.086Z,99158.53
2024-01-28T18:48:21.674Z,99197.53
2024-01-28T18:53:25.693Z,99383.97
2024-01-28T18:58:30.942Z,99382.44
2024-01-28T19:03:34.880Z,99367.00
2024-01-28T19:08:38.884Z,99286.47
2024-01-28T19:13:44.244Z,99404.38
2024-01-28T19:18:48.788Z,99183.09
2024-01-28T19:23:53.001Z,99403.25
2024-01-28T19:28:58.286Z,99425.31
2024-01-28T19:34:02.330Z,99380.50
2024-01-28T19:39:06.454Z,99364.63
2024-01-28T19:44:11.858Z,99361.66
2024-01-28T19:49:16.166Z,99350.09
2024-01-28T19:54:22.319Z,99380.97
2024-01-28T19:59:27.781Z,99375.91
2024-01-28T20:04:31.644Z,99386.25
2024-01-28T20:09:35.593Z,99402.31
2024-01-28T20:14:42.892Z,99364.22
2024-01-28T20:19:47.002Z,99395.25
2024-01-28T20:24:51.051Z,99395.78
2024-01-28T20:29:56.167Z,99387.94
2024-01-28T20:34:59.950Z,99374.06
2024-01-28T20:40:04.214Z,99373.81
2024-01-28T20:45:10.244Z,99324.94
2024-01-28T20:50:14.227Z,99377.72
2024-01-28T20:55:18.432Z,99130.78
2024-01-28T21:00:29.051Z,99365.69
2024-01-28T21:05:32.806Z,99375.69
2024-01-28T21:10:38.663Z,99273.09
2024-01-28T21:15:43.981Z,99368.69
2024-01-28T21:20:48.106Z,99267.13
2024-01-28T21:25:52.184Z,99340.88
2024-01-28T21:30:57.990Z,99377.44
2024-01-28T21:36:01.942Z,99335.09
2024-01-28T21:41:05.936Z,99372.47
2024-01-28T21:46:11.202Z,99370.78
2024-01-28T21:51:15.403Z,99085.59
2024-01-28T21:56:25.859Z,99269.19
2024-01-28T22:01:31.271Z,99379.63
2024-01-28T22:06:35.258Z,99360.84
2024-01-28T22:11:40.775Z,99318.69
2024-01-28T22:16:47.052Z,99282.28
2024-01-28T22:21:50.795Z,99371.28
2024-01-28T22:26:54.702Z,99163.59
2024-01-28T22:31:59.735Z,99366.22
2024-01-28T22:37:03.836Z,99350.34
2024-01-28T22:42:08.221Z,99334.47
2024-01-28T22:47:15.987Z,99381.22
2024-01-28T22:52:19.745Z,99383.13
2024-01-28T22:57:23.550Z,99255.66
2024-01-28T23:02:29.760Z,99382.47
2024-01-28T23:07:33.394Z,99282.91
2024-01-28T23:12:37.311Z,99386.09
2024-01-28T23:17:42.585Z,99221.69
2024-01-28T23:22:46.458Z,99278.09
2024-01-28T23:27:50.513Z,99379.59
2024-01-28T23:32:55.824Z,99380.44
2024-01-28T23:37:59.529Z,99354.06
2024-01-28T23:43:03.673Z,99368.03
2024-01-28T23:48:09.428Z,99099.59
2024-01-28T23:53:13.793Z,99344.16
2024-01-28T23:58:17.590Z,99324.75
